createdAt,value
2022-09-06T00:00:39.033Z,98570.50
2022-09-06T00:03:41.475Z,98572.66
2022-09-06T00:06:43.653Z,98569.00
2022-09-06T00:09:45.455Z,98568.03
2022-09-06T00:12:47.927Z,98559.41
2022-09-06T00:15:49.768Z,98558.78
2022-09-06T00:18:55.601Z,98564.06
2022-09-06T00:21:57.365Z,98564.72
2022-09-06T00:25:01.089Z,98556.81
2022-09-06T00:28:05.217Z,98561.09
2022-09-06T00:31:18.251Z,98559.63
2022-09-06T00:34:20.290Z,98560.09
2022-09-06T00:37:22.063Z,98564.09
2022-09-06T00:40:24.166Z,98555.00
2022-09-06T00:43:26.421Z,98558.13
2022-09-06T00:46:29.918Z,98559.13
2022-09-06T00:49:35.764Z,98564.75
2022-09-06T00:52:38.495Z,98568.41
2022-09-06T00:55:43.282Z,98558.63
2022-09-06T00:58:45.184Z,98566.75
2022-09-06T01:01:47.161Z,98565.94
2022-09-06T01:04:49.984Z,98562.78
2022-09-06T01:08:03.402Z,98559.31
2022-09-06T01:11:34.181Z,98557.50
2022-09-06T01:14:45.692Z,98550.53
2022-09-06T01:17:56.612Z,98550.88
2022-09-06T01:21:25.380Z,98551.22
2022-09-06T01:24:31.013Z,98554.19
2022-09-06T01:27:51.516Z,98550.56
2022-09-06T01:31:05.291Z,98559.97
2022-09-06T01:34:16.741Z,98556.19
2022-09-06T01:37:23.223Z,98558.47
2022-09-06T01:40:25.895Z,98553.50
2022-09-06T01:43:33.230Z,98547.88
2022-09-06T01:47:05.371Z,98549.19
2022-09-06T01:50:16.511Z,98549.84
2022-09-06T01:53:36.744Z,98549.50
2022-09-06T01:57:02.032Z,98548.22
2022-09-06T02:00:11.188Z,98561.09
2022-09-06T02:03:25.224Z,98540.31
2022-09-06T02:06:30.283Z,98539.13
2022-09-06T02:09:37.100Z,98540.63
2022-09-06T02:12:41.556Z,98554.19
2022-09-06T02:15:47.675Z,98550.84
2022-09-06T02:19:09.636Z,98549.19
2022-09-06T02:22:13.716Z,98552.50
2022-09-06T02:25:22.866Z,98539.63
2022-09-06T02:28:25.255Z,98546.41
2022-09-06T02:31:34.973Z,98551.19
2022-09-06T02:34:40.395Z,98545.72
2022-09-06T02:37:42.827Z,98552.19
2022-09-06T02:40:45.844Z,98542.44
2022-09-06T02:43:47.644Z,98533.19
2022-09-06T02:46:51.822Z,98535.66
2022-09-06T02:49:56.909Z,98538.97
2022-09-06T02:53:10.305Z,98534.81
2022-09-06T02:56:13.544Z,98538.28
2022-09-06T02:59:15.367Z,98535.16
2022-09-06T03:02:17.397Z,98531.47
2022-09-06T03:05:19.593Z,98534.44
2022-09-06T03:08:25.898Z,98523.69
2022-09-06T03:11:28.557Z,98523.38
2022-09-06T03:14:30.495Z,98520.25
2022-09-06T03:17:33.785Z,98519.75
2022-09-06T03:20:37.223Z,98528.44
2022-09-06T03:23:39.735Z,98521.97
2022-09-06T03:26:44.509Z,98526.31
2022-09-06T03:29:46.427Z,98519.88
2022-09-06T03:32:49.128Z,98520.69
2022-09-06T03:35:53.550Z,98504.19
2022-09-06T03:38:55.652Z,98506.50
2022-09-06T03:41:57.526Z,98512.09
2022-09-06T03:45:00.795Z,98510.13
2022-09-06T03:48:02.885Z,98502.84
2022-09-06T03:51:04.921Z,98502.84
2022-09-06T03:54:06.704Z,98504.53
2022-09-06T03:57:09.276Z,98499.25
2022-09-06T04:00:11.723Z,98499.25
2022-09-06T04:03:13.538Z,98500.72
2022-09-06T04:06:15.561Z,98506.00
2022-09-06T04:09:17.461Z,98498.53
2022-09-06T04:12:19.384Z,98504.50
2022-09-06T04:15:21.294Z,98507.47
2022-09-06T04:18:23.567Z,98505.00
2022-09-06T04:21:25.642Z,98497.72
2022-09-06T04:24:27.508Z,98508.44
2022-09-06T04:27:29.498Z,98512.34
2022-09-06T04:30:31.577Z,98516.00
2022-09-06T04:33:35.254Z,98526.44
2022-09-06T04:36:37.445Z,98520.34
2022-09-06T04:39:39.313Z,98523.94
2022-09-06T04:42:41.246Z,98522.16
2022-09-06T04:45:43.459Z,98522.16
2022-09-06T04:48:45.319Z,98529.81
2022-09-06T04:51:47.212Z,98519.41
2022-09-06T04:54:49.080Z,98514.78
2022-09-06T04:57:51.451Z,98517.13
2022-09-06T05:00:53.760Z,98510.88
2022-09-06T05:03:57.059Z,98514.53
2022-09-06T05:07:05.675Z,98510.22
2022-09-06T05:10:07.995Z,98504.25
2022-09-06T05:13:09.904Z,98499.91
2022-09-06T05:16:12.443Z,98508.63
2022-09-06T05:19:14.609Z,98505.53
2022-09-06T05:22:16.601Z,98502.81
2022-09-06T05:25:18.665Z,98505.19
2022-09-06T05:28:20.708Z,98500.75
2022-09-06T05:31:28.727Z,98500.63
2022-09-06T05:34:31.593Z,98498.88
2022-09-06T05:37:33.676Z,98499.81
2022-09-06T05:40:38.026Z,98497.34
2022-09-06T05:43:40.055Z,98500.06
2022-09-06T05:46:45.473Z,98504.44
2022-09-06T05:49:47.674Z,98499.63
2022-09-06T05:52:54.082Z,98492.72
2022-09-06T05:55:56.080Z,98508.84
2022-09-06T05:58:58.121Z,98506.09
2022-09-06T06:02:00.987Z,98507.50
2022-09-06T06:05:04.777Z,98496.06
2022-09-06T06:08:06.911Z,98510.50
2022-09-06T06:11:10.027Z,98510.63
2022-09-06T06:14:12.065Z,98506.69
2022-09-06T06:17:14.300Z,98512.09
2022-09-06T06:20:16.299Z,98518.28
2022-09-06T06:23:18.154Z,98509.06
2022-09-06T06:26:21.731Z,98502.94
2022-09-06T06:29:25.378Z,98517.78
2022-09-06T06:32:27.359Z,98505.78
2022-09-06T06:35:29.388Z,98518.75
2022-09-06T06:38:37.909Z,98517.47
2022-09-06T06:41:39.767Z,98518.59
2022-09-06T06:45:02.143Z,98519.47
2022-09-06T06:48:04.242Z,98519.59
2022-09-06T06:51:07.296Z,98527.81
2022-09-06T06:54:09.335Z,98527.72
2022-09-06T06:57:12.768Z,98523.53
2022-09-06T07:00:15.407Z,98527.53
2022-09-06T07:03:18.598Z,98522.75
2022-09-06T07:06:21.464Z,98527.53
2022-09-06T07:09:23.789Z,98525.94
2022-09-06T07:12:26.123Z,98523.78
2022-09-06T07:15:28.440Z,98524.44
2022-09-06T07:18:30.591Z,98526.19
2022-09-06T07:24:39.938Z,98514.69
2022-09-06T07:30:47.148Z,98533.94
2022-09-06T07:33:53.775Z,98540.63
2022-09-06T07:36:57.760Z,98542.66
2022-09-06T07:40:00.880Z,98536.69
2022-09-06T07:43:02.750Z,98542.81
2022-09-06T07:46:08.987Z,98537.59
2022-09-06T07:49:10.851Z,98536.31
2022-09-06T07:55:36.127Z,98543.56
2022-09-06T07:58:40.806Z,98542.53
2022-09-06T08:01:43.309Z,98548.00
2022-09-06T08:04:51.034Z,98551.22
2022-09-06T08:11:15.762Z,98553.53
2022-09-06T08:14:17.865Z,98554.63
2022-09-06T08:17:20.439Z,98554.75
2022-09-06T08:20:22.307Z,98551.22
2022-09-06T08:23:27.488Z,98546.56
2022-09-06T08:26:31.541Z,98540.91
2022-09-06T08:29:37.222Z,98529.44
2022-09-06T08:32:41.300Z,98535.44
2022-09-06T08:35:44.316Z,98526.28
2022-09-06T08:38:46.443Z,98528.50
2022-09-06T08:42:04.689Z,98525.88
2022-09-06T08:45:19.266Z,98528.78
2022-09-06T08:48:21.364Z,98536.59
2022-09-06T08:51:54.266Z,98538.25
2022-09-06T08:55:22.584Z,98525.44
2022-09-06T08:58:59.654Z,98518.03
2022-09-06T09:02:12.432Z,98506.44
2022-09-06T09:05:22.406Z,98507.19
2022-09-06T09:09:07.290Z,98504.75
2022-09-06T09:12:21.378Z,98521.09
2022-09-06T09:15:24.474Z,98510.72
2022-09-06T09:18:30.381Z,98516.41
2022-09-06T09:21:35.097Z,98515.56
2022-09-06T09:24:37.762Z,98500.94
2022-09-06T09:27:40.052Z,98493.38
2022-09-06T09:30:55.471Z,98501.94
2022-09-06T09:33:57.512Z,98492.50
2022-09-06T09:40:52.285Z,98488.19
2022-09-06T09:44:04.656Z,98475.13
2022-09-06T09:47:28.824Z,98472.88
2022-09-06T09:50:33.631Z,98477.53
2022-09-06T09:53:50.638Z,98467.84
2022-09-06T09:56:53.173Z,98473.28
2022-09-06T10:00:01.528Z,98464.69
2022-09-06T10:03:16.827Z,98473.28
2022-09-06T10:09:59.759Z,98468.41
2022-09-06T10:13:26.986Z,98468.47
2022-09-06T10:16:45.861Z,98474.72
2022-09-06T10:19:49.117Z,98476.25
2022-09-06T10:23:03.170Z,98472.13
2022-09-06T10:26:17.839Z,98472.09
2022-09-06T10:29:27.838Z,98482.72
2022-09-06T10:32:48.157Z,98484.00
2022-09-06T10:35:50.261Z,98478.81
2022-09-06T10:39:07.958Z,98472.50
2022-09-06T10:42:37.788Z,98467.22
2022-09-06T10:45:59.408Z,98469.44
2022-09-06T10:49:01.567Z,98465.31
2022-09-06T10:52:07.722Z,98465.47
2022-09-06T10:55:12.297Z,98463.03
2022-09-06T10:58:25.884Z,98468.66
2022-09-06T11:01:39.462Z,98465.00
2022-09-06T11:11:45.352Z,98448.91
2022-09-06T11:14:47.975Z,98447.16
2022-09-06T11:18:06.519Z,98452.19
2022-09-06T11:21:26.925Z,98440.63
2022-09-06T11:24:47.441Z,98436.88
2022-09-06T11:27:58.145Z,98438.38
2022-09-06T11:31:00.719Z,98438.25
2022-09-06T11:34:10.451Z,98438.25
2022-09-06T11:37:28.266Z,98437.09
2022-09-06T11:40:37.788Z,98445.72
2022-09-06T11:43:53.648Z,98434.00
2022-09-06T11:46:55.909Z,98434.66
2022-09-06T11:49:58.052Z,98437.22
2022-09-06T11:53:17.752Z,98423.13
2022-09-06T11:56:28.501Z,98425.28
2022-09-06T11:59:36.936Z,98422.94
2022-09-06T12:02:41.366Z,98433.66
2022-09-06T12:06:17.923Z,98434.56
2022-09-06T12:09:34.511Z,98441.09
2022-09-06T12:12:43.421Z,98434.66
2022-09-06T12:15:51.751Z,98435.75
2022-09-06T12:18:55.103Z,98443.75
2022-09-06T12:21:56.942Z,98435.91
2022-09-06T12:25:02.097Z,98425.13
2022-09-06T12:28:05.868Z,98424.72
2022-09-06T12:31:26.490Z,98418.97
2022-09-06T12:34:37.181Z,98421.41
2022-09-06T12:38:01.718Z,98423.66
2022-09-06T12:41:05.148Z,98425.03
2022-09-06T12:44:07.817Z,98419.53
2022-09-06T12:47:16.749Z,98417.16
2022-09-06T12:50:26.118Z,98413.41
2022-09-06T12:53:28.350Z,98408.06
2022-09-06T12:56:33.554Z,98409.03
2022-09-06T12:59:35.872Z,98403.50
2022-09-06T13:02:48.608Z,98401.19
2022-09-06T13:05:51.765Z,98396.72
2022-09-06T13:08:56.226Z,98399.66
2022-09-06T13:12:08.607Z,98395.50
2022-09-06T13:15:29.224Z,98399.19
2022-09-06T13:18:39.877Z,98403.84
2022-09-06T13:21:43.990Z,98393.56
2022-09-06T13:24:47.960Z,98388.69
2022-09-06T13:27:51.882Z,98387.53
2022-09-06T13:31:11.071Z,98380.00
2022-09-06T13:34:24.947Z,98389.78
2022-09-06T13:37:32.192Z,98405.56
2022-09-06T13:41:10.140Z,98392.88
2022-09-06T13:44:17.611Z,98389.88
2022-09-06T13:47:19.975Z,98386.06
2022-09-06T13:50:28.076Z,98383.81
2022-09-06T13:54:14.690Z,98371.78
2022-09-06T13:57:50.039Z,98366.56
2022-09-06T14:10:24.837Z,98358.97
2022-09-06T14:13:26.776Z,98366.75
2022-09-06T14:16:28.859Z,98371.41
2022-09-06T14:19:31.836Z,98367.31
2022-09-06T14:22:33.882Z,98349.63
2022-09-06T14:25:37.209Z,98345.13
2022-09-06T14:28:39.189Z,98342.22
2022-09-06T14:31:41.148Z,98351.56
2022-09-06T14:34:43.220Z,98341.00
2022-09-06T14:37:45.335Z,98332.22
2022-09-06T14:40:47.715Z,98340.50
2022-09-06T14:43:55.284Z,98339.50
2022-09-06T14:46:57.321Z,98340.50
2022-09-06T14:50:00.697Z,98336.53
2022-09-06T14:53:03.162Z,98332.56
2022-09-06T14:56:05.709Z,98333.00
2022-09-06T14:59:09.332Z,98323.47
2022-09-06T15:02:11.307Z,98330.69
2022-09-06T15:05:13.718Z,98331.44
2022-09-06T15:08:15.907Z,98334.63
2022-09-06T15:11:35.398Z,98323.13
2022-09-06T15:14:38.104Z,98323.13
2022-09-06T15:17:40.352Z,98333.63
2022-09-06T15:20:43.623Z,98329.91
2022-09-06T15:23:45.725Z,98324.66
2022-09-06T15:26:47.981Z,98323.53
2022-09-06T15:29:50.272Z,98316.69
2022-09-06T15:32:52.245Z,98310.34
2022-09-06T15:35:57.581Z,98291.22
2022-09-06T15:39:01.273Z,98303.53
2022-09-06T15:42:03.520Z,98292.22
2022-09-06T15:45:06.632Z,98294.94
2022-09-06T15:48:08.857Z,98300.31
2022-09-06T15:51:12.536Z,98303.75
2022-09-06T15:54:16.883Z,98298.34
2022-09-06T15:57:18.979Z,98296.78
2022-09-06T16:00:22.934Z,98306.53
2022-09-06T16:03:25.114Z,98293.84
2022-09-06T16:06:28.392Z,98297.69
2022-09-06T16:09:31.986Z,98297.41
2022-09-06T16:12:34.161Z,98294.31
2022-09-06T16:15:36.058Z,98289.69
2022-09-06T16:18:40.090Z,98292.81
2022-09-06T16:21:43.595Z,98285.88
2022-09-06T16:24:45.799Z,98279.91
2022-09-06T16:27:47.894Z,98274.41
2022-09-06T16:30:50.061Z,98281.56
2022-09-06T16:33:53.865Z,98271.84
2022-09-06T16:36:57.235Z,98268.75
2022-09-06T16:39:59.365Z,98274.03
2022-09-06T16:43:02.364Z,98272.81
2022-09-06T16:46:05.058Z,98276.56
2022-09-06T16:49:07.272Z,98273.75
2022-09-06T16:52:09.182Z,98272.25
2022-09-06T16:55:11.326Z,98269.13
2022-09-06T16:58:14.005Z,98275.16
2022-09-06T17:01:16.818Z,98266.38
2022-09-06T17:04:19.084Z,98270.50
2022-09-06T17:07:21.212Z,98273.59
2022-09-06T17:10:23.428Z,98268.91
2022-09-06T17:13:25.408Z,98272.81
2022-09-06T17:16:45.967Z,98272.19
2022-09-06T17:19:48.172Z,98273.66
2022-09-06T17:22:51.193Z,98273.88
2022-09-06T17:25:56.146Z,98275.53
2022-09-06T17:28:58.922Z,98281.44
2022-09-06T17:32:04.083Z,98283.28
2022-09-06T17:35:07.546Z,98289.84
2022-09-06T17:38:10.022Z,98289.63
2022-09-06T17:41:21.704Z,98293.91
2022-09-06T17:44:25.625Z,98295.09
2022-09-06T17:47:28.284Z,98304.69
2022-09-06T17:50:31.232Z,98305.31
2022-09-06T17:53:34.333Z,98312.59
2022-09-06T17:56:41.483Z,98308.91
2022-09-06T17:59:43.495Z,98305.97
2022-09-06T18:02:45.599Z,98306.56
2022-09-06T18:05:47.661Z,98299.38
2022-09-06T18:08:51.905Z,98299.91
2022-09-06T18:11:53.897Z,98300.78
2022-09-06T18:14:55.761Z,98291.06
2022-09-06T18:17:58.548Z,98300.91
2022-09-06T18:21:00.907Z,98308.69
2022-09-06T18:24:03.914Z,98303.41
2022-09-06T18:27:06.982Z,98303.41
2022-09-06T18:30:14.607Z,98304.81
2022-09-06T18:33:17.059Z,98310.44
2022-09-06T18:36:19.922Z,98315.59
2022-09-06T18:39:33.243Z,98300.59
2022-09-06T18:42:37.835Z,98295.03
2022-09-06T18:45:40.011Z,98292.06
2022-09-06T18:48:42.372Z,98298.19
2022-09-06T18:51:45.871Z,98301.44
2022-09-06T18:54:49.160Z,98306.53
2022-09-06T18:57:52.618Z,98306.44
2022-09-06T19:01:05.690Z,98304.69
2022-09-06T19:04:08.906Z,98302.75
2022-09-06T19:07:11.105Z,98293.72
2022-09-06T19:10:13.447Z,98298.50
2022-09-06T19:13:16.520Z,98293.13
2022-09-06T19:16:19.573Z,98296.88
2022-09-06T19:19:23.855Z,98297.25
2022-09-06T19:22:26.784Z,98299.34
2022-09-06T19:25:28.862Z,98289.69
2022-09-06T19:28:31.603Z,98298.28
2022-09-06T19:31:35.987Z,98298.78
2022-09-06T19:34:38.462Z,98289.38
2022-09-06T19:37:40.983Z,98290.59
2022-09-06T19:40:43.500Z,98290.91
2022-09-06T19:43:50.279Z,98295.47
2022-09-06T19:46:52.937Z,98282.38
2022-09-06T19:49:55.276Z,98289.25
2022-09-06T19:52:58.113Z,98295.03
2022-09-06T19:56:00.645Z,98287.28
2022-09-06T19:59:08.485Z,98294.41
2022-09-06T20:02:10.948Z,98292.84
2022-09-06T20:05:13.252Z,98287.09
2022-09-06T20:08:15.550Z,98290.41
2022-09-06T20:11:27.456Z,98293.59
2022-09-06T20:14:29.773Z,98295.22
2022-09-06T20:17:34.043Z,98294.78
2022-09-06T20:20:36.469Z,98292.41
2022-09-06T20:23:38.908Z,98289.75
2022-09-06T20:26:41.028Z,98288.53
2022-09-06T20:29:43.082Z,98291.38
2022-09-06T20:32:45.468Z,98293.28
2022-09-06T20:36:02.088Z,98297.00
2022-09-06T20:39:04.672Z,98292.16
2022-09-06T20:42:09.766Z,98289.63
2022-09-06T20:45:13.543Z,98293.94
2022-09-06T20:48:16.099Z,98281.94
2022-09-06T20:51:20.595Z,98282.28
2022-09-06T20:54:23.295Z,98279.44
2022-09-06T20:57:25.494Z,98287.22
2022-09-06T21:00:30.696Z,98281.72
2022-09-06T21:03:32.756Z,98278.78
2022-09-06T21:06:36.962Z,98276.22
2022-09-06T21:09:39.458Z,98281.31
2022-09-06T21:12:46.641Z,98271.91
2022-09-06T21:15:49.483Z,98274.91
2022-09-06T21:18:56.518Z,98274.78
2022-09-06T21:21:58.587Z,98270.75
2022-09-06T21:25:04.100Z,98267.09
2022-09-06T21:28:06.135Z,98268.81
2022-09-06T21:31:12.092Z,98272.34
2022-09-06T21:34:17.231Z,98283.31
2022-09-06T21:37:19.773Z,98277.53
2022-09-06T21:40:21.773Z,98277.19
2022-09-06T21:43:30.075Z,98271.63
2022-09-06T21:46:39.073Z,98271.63
2022-09-06T21:49:41.298Z,98270.25
2022-09-06T21:52:45.805Z,98273.88
2022-09-06T21:55:48.286Z,98269.72
2022-09-06T21:58:57.702Z,98268.09
2022-09-06T22:02:00.468Z,98253.00
2022-09-06T22:05:06.721Z,98246.09
2022-09-06T22:08:11.009Z,98249.63
2022-09-06T22:11:16.836Z,98247.03
2022-09-06T22:14:22.069Z,98245.09
2022-09-06T22:17:24.268Z,98238.97
2022-09-06T22:20:31.165Z,98244.25
2022-09-06T22:23:33.445Z,98245.63
2022-09-06T22:26:40.283Z,98248.91
2022-09-06T22:29:42.389Z,98241.06
2022-09-06T22:32:48.520Z,98248.91
2022-09-06T22:35:51.274Z,98247.59
2022-09-06T22:38:59.291Z,98244.34
2022-09-06T22:42:01.704Z,98246.66
2022-09-06T22:45:04.283Z,98241.84
2022-09-06T22:48:06.576Z,98241.38
2022-09-06T22:51:09.961Z,98237.91
2022-09-06T22:54:12.104Z,98239.25
2022-09-06T22:57:14.112Z,98248.06
2022-09-06T23:00:16.269Z,98244.66
2022-09-06T23:03:18.446Z,98244.47
2022-09-06T23:06:24.186Z,98248.13
2022-09-06T23:09:26.261Z,98249.75
2022-09-06T23:12:31.933Z,98259.66
2022-09-06T23:15:42.210Z,98247.69
2022-09-06T23:18:45.202Z,98244.72
2022-09-06T23:21:48.839Z,98254.03
2022-09-06T23:24:51.357Z,98259.66
2022-09-06T23:27:54.592Z,98250.75
2022-09-06T23:31:10.210Z,98248.88
2022-09-06T23:34:12.474Z,98242.41
2022-09-06T23:37:20.626Z,98246.06
2022-09-06T23:40:22.754Z,98241.47
2022-09-06T23:43:28.992Z,98236.19
2022-09-06T23:46:32.095Z,98227.13
2022-09-06T23:49:37.490Z,98238.50
2022-09-06T23:52:39.646Z,98231.22
2022-09-06T23:55:45.326Z,98231.44
2022-09-06T23:58:48.330Z,98226.94
